AirNav   Duncan Aviation - Near you to keep you flying
 
 1219 users online  

OG30 Aeroacres Airport
Oregon City, Oregon, USA

GOING TO OREGON CITY?


FAA INFORMATION EFFECTIVE 09 SEPTEMBER 2021

Location

FAA Identifier: OG30
Lat/Long: 45-18-59.4360N 122-36-19.3280W
45-18.990600N 122-36.322133W
45.3165100,-122.6053689
(estimated)
Elevation: 420 ft. / 128 m (estimated)
Variation: 19E (1985)
From city: 3 miles S of OREGON CITY, OR
Time zone: UTC -7 (UTC -8 during Standard Time)
Zip code: 97045

Airport Operations

Airport use: Private use. Permission required prior to landing
Activation date: 08/1970
Control tower: no
ARTCC: SEATTLE CENTER
FSS: MC MINNVILLE FLIGHT SERVICE STATION
Attendance: UNATNDD
Wind indicator: yes
Segmented circle: no

Airport Communications

WX ASOS at UAO (8 nm SW): PHONE 503-678-3011
WX ASOS at PDX (16 nm N): PHONE (503) 493-7687
WX ASOS at TTD (16 nm NE): 135.625 (503-492-2887)
WX ASOS at VUO (18 nm N): 135.125 (360-696-1280)
WX ASOS at HIO (20 nm NW): PHONE 503-615-4314

Nearby radio navigation aids

VOR radial/distance  VOR name  Freq  Var
UBGr077/15.9NEWBERG VOR/DME117.4021E
BTGr160/25.9BATTLE GROUND VORTAC116.6021E

 
NDB name  Hdg/Dist  Freq  Var  ID
BANKS119/26.435616EPND .--. -. -..

Airport Services

Parking: hangars
Airframe service: MAJOR
Powerplant service: MAJOR
Bottled oxygen: NONE
Bulk oxygen: NONE

Runway Information

Runway 4/22

Dimensions: 1800 x 250 ft. / 549 x 76 m
Surface: turf
RUNWAY 4  RUNWAY 22
Traffic pattern: leftleft
Obstructions: pline, 300 ft. from runway, 20:1 slope to clearroad, 15 ft. from runway, 1:1 slope to clear

Airport Ownership and Management from official FAA records

Ownership: Privately-owned
Owner: HENRY PFLEGL
20001 S LELAND ROAD 2001
OREGON CITY, OR 97045
Phone 503-656-9675
Manager: HENRY PFLEGL
20001 S LELAND ROAD 2001
OREGON CITY, OR 97045
Phone 503-656-9675

Airport Operational Statistics

Aircraft based on the field: 3
Single engine airplanes: 3
    

Additional Remarks

FOR CD CTC PORTLAND APCH AT 503-493-7545.

Instrument Procedures

There are no published instrument procedures at OG30.

Some nearby airports with instrument procedures:

KUAO - Aurora State Airport (8 nm SW)
KPDX - Portland International Airport (16 nm N)
KTTD - Portland-Troutdale Airport (16 nm NE)
KVUO - Pearson Field Airport (18 nm N)
KHIO - Portland-Hillsboro Airport (20 nm NW)
 
Loc | Ops | Rwys | IFR | FBO | Links
Com | Nav | Svcs | Stats | Notes
Area around OG30 (Aeroacres Airport)
 
Road maps at: MapQuest Bing Google
 
Aerial photo
WARNING: Photo may not be current or correct
Aerial photo of OG30 (Aeroacres Airport)
Do you have a better or more recent aerial photo of Aeroacres Airport that you would like to share? If so, please send us your photo.

 
Sectional chart

 
Airport distance calculator
Flying to Aeroacres Airport? Find the distance to fly.

From to OG30

Sunrise and sunset
Times for 23-Sep-2021
 Local
(UTC-7)
 Zulu
(UTC)
Morning civil twilight06:3013:30
Sunrise07:0014:00
Sunset19:0602:06
Evening civil twilight19:3502:35

Current date and time
Zulu (UTC)  24-Sep-2021 00:21:33
Local (UTC-7)  23-Sep-2021 17:21:33
 
METAR
KUAO 
8nm SW 
232353Z AUTO 03010KT 10SM CLR 24/11 A3018 RMK AO2 SLP217 T02390106 10239 20167 56017
KPDX 
16nm N 
232353Z 32009KT 10SM BKN250 23/13 A3018 RMK AO2 SLP219 T02330133 10239 20161 56016
KTTD 
16nm NE 
232353Z VRB03KT 10SM CLR 24/12 A3017 RMK AO2 SLP215 T02390122 10244 20172 58015
KVUO 
18nm N 
232353Z AUTO 31010G16KT 10SM CLR 23/13 A3017 RMK AO2 SLP217 T02280128 10228 20156 56017
TAF
KUAO 
8nm SW 
231731Z 2318/2418 01007KT P6SM OVC012 FM232000 01007KT P6SM FEW250 FM240300 03006KT P6SM SKC FM240600 36008KT P6SM SKC
KPDX 
16nm N 
240008Z 2400/2424 33008G15KT P6SM FEW300 FM240300 33005KT P6SM SKC FM241000 VRB03KT P6SM SKC FM241600 08007KT P6SM SKC FM242100 35007KT P6SM SCT200
KTTD 
16nm NE 
231741Z 2318/2418 VRB04KT P6SM SCT011 FM231900 VRB04KT P6SM FEW180 FM232100 33006KT P6SM SKC FM241500 08008KT P6SM SKC
NOTAMs
Click for the latest NOTAMs
NOTAMs are issued by the DoD/FAA and will open in a separate window not controlled by AirNav.

 

 
 

Would you like to see your business listed on this page?

 If your business provides an interesting product or service to pilots, flight crews, aircraft, or users of the Aeroacres Airport, you should consider listing it here.  To start the listing process, click on the button below
 
Add a business
 

Other Pages about Aeroacres Airport

Update a link
 
Copyright © AirNav, LLC. All rights reserved. Privacy Policy  Contact